createdAt,value
2017-08-24T00:04:00.091Z,9.23
2017-08-24T00:08:47.056Z,12.27
2017-08-24T00:13:33.763Z,11.40
2017-08-24T00:18:20.408Z,11.60
2017-08-24T00:23:07.135Z,11.87
2017-08-24T00:27:53.761Z,11.80
2017-08-24T00:32:40.671Z,12.70
2017-08-24T00:37:27.274Z,12.20
2017-08-24T00:42:14.228Z,12.03
2017-08-24T00:47:00.923Z,13.07
2017-08-24T00:51:47.568Z,12.53
2017-08-24T00:56:34.189Z,11.67
2017-08-24T01:01:20.910Z,10.97
2017-08-24T01:06:07.633Z,11.80
2017-08-24T01:10:54.521Z,10.37
2017-08-24T01:15:41.128Z,11.70
2017-08-24T01:20:28.005Z,13.07
2017-08-24T01:25:14.713Z,13.20
2017-08-24T01:30:01.451Z,12.40
2017-08-24T01:34:48.139Z,11.67
2017-08-24T01:39:34.800Z,11.03
2017-08-24T01:44:21.473Z,10.70
2017-08-24T01:49:08.108Z,10.50
2017-08-24T01:53:55.068Z,11.30
2017-08-24T01:58:41.684Z,12.07
2017-08-24T02:03:28.342Z,13.67
2017-08-24T02:08:15.018Z,14.00
2017-08-24T02:13:01.645Z,13.70
2017-08-24T02:17:48.323Z,15.10
2017-08-24T02:22:35.365Z,16.30
2017-08-24T02:27:22.012Z,15.73
2017-08-24T02:32:08.729Z,16.33
2017-08-24T02:36:55.365Z,19.50
2017-08-24T02:41:42.082Z,20.77
2017-08-24T02:46:29.024Z,17.00
2017-08-24T02:51:15.831Z,18.00
2017-08-24T02:56:02.711Z,16.90
2017-08-24T03:00:49.630Z,15.87
2017-08-24T03:05:37.273Z,16.07
2017-08-24T03:10:23.932Z,16.00
2017-08-24T03:15:10.978Z,15.27
2017-08-24T03:19:57.611Z,16.10
2017-08-24T03:24:44.261Z,16.60
2017-08-24T03:29:30.906Z,16.73
2017-08-24T03:34:17.541Z,17.60
2017-08-24T03:39:04.293Z,18.47
2017-08-24T03:43:51.288Z,17.70
2017-08-24T03:48:37.957Z,18.50
2017-08-24T03:53:24.655Z,17.33
2017-08-24T03:58:11.449Z,17.87
2017-08-24T04:02:58.236Z,18.10
2017-08-24T04:07:45.535Z,18.93
2017-08-24T04:12:32.478Z,18.03
2017-08-24T04:17:19.144Z,18.93
2017-08-24T04:22:05.856Z,19.10
2017-08-24T04:26:52.860Z,18.90
2017-08-24T04:31:39.761Z,20.60
2017-08-24T04:36:26.485Z,16.57
2017-08-24T04:41:13.476Z,19.03
2017-08-24T04:46:00.147Z,18.67
2017-08-24T04:50:46.777Z,18.23
2017-08-24T04:55:33.779Z,17.83
2017-08-24T05:00:20.469Z,18.17
2017-08-24T05:05:07.449Z,18.63
2017-08-24T05:09:54.196Z,17.70
2017-08-24T05:14:40.985Z,15.97
2017-08-24T05:19:28.123Z,20.07
2017-08-24T05:24:14.830Z,16.17
2017-08-24T05:29:01.552Z,16.43
2017-08-24T05:33:48.676Z,18.10
2017-08-24T05:38:35.276Z,16.80
2017-08-24T05:43:21.937Z,16.63
2017-08-24T05:48:08.583Z,17.30
2017-08-24T05:52:55.222Z,16.60
2017-08-24T05:57:41.863Z,15.70
2017-08-24T06:02:35.993Z,14.70
2017-08-24T06:07:22.667Z,16.77
2017-08-24T06:12:09.313Z,18.20
2017-08-24T06:16:55.945Z,14.73
2017-08-24T06:21:42.667Z,15.70
2017-08-24T06:26:29.614Z,15.43
2017-08-24T06:31:16.225Z,14.40
2017-08-24T06:36:02.841Z,13.03
2017-08-24T06:40:49.481Z,13.10
2017-08-24T06:45:36.106Z,15.80
2017-08-24T06:50:23.118Z,14.50
2017-08-24T06:55:09.930Z,13.93
2017-08-24T06:59:56.592Z,14.63
2017-08-24T07:04:43.433Z,14.17
2017-08-24T07:09:30.370Z,12.60
2017-08-24T07:14:16.988Z,13.43
2017-08-24T07:19:04.151Z,13.23
2017-08-24T07:23:50.774Z,12.03
2017-08-24T07:28:37.902Z,11.93
2017-08-24T07:33:24.624Z,9.67
2017-08-24T07:38:11.275Z,11.27
2017-08-24T07:42:57.910Z,11.47
2017-08-24T07:47:44.808Z,10.13
2017-08-24T07:52:31.406Z,12.47
2017-08-24T07:57:18.327Z,10.20
2017-08-24T08:02:04.968Z,10.80
2017-08-24T08:06:51.617Z,11.40
2017-08-24T08:11:38.287Z,10.53
2017-08-24T08:16:25.345Z,9.20
2017-08-24T08:21:11.969Z,9.30
2017-08-24T08:25:58.755Z,8.80
2017-08-24T08:30:45.649Z,8.13
2017-08-24T08:35:32.292Z,7.63
2017-08-24T08:40:19.081Z,9.20
2017-08-24T08:45:06.092Z,6.23
2017-08-24T08:49:52.704Z,8.37
2017-08-24T08:54:39.345Z,5.83
2017-08-24T08:59:25.975Z,6.60
2017-08-24T09:04:12.655Z,6.93
2017-08-24T09:08:59.540Z,7.10
2017-08-24T09:13:46.177Z,6.90
2017-08-24T09:18:32.821Z,6.17
2017-08-24T09:23:19.765Z,5.83
2017-08-24T09:28:06.470Z,6.63
2017-08-24T09:32:53.092Z,6.43
2017-08-24T09:37:46.792Z,5.93
2017-08-24T09:42:33.428Z,7.00
2017-08-24T09:47:20.732Z,5.40
2017-08-24T09:52:07.344Z,5.80
2017-08-24T09:56:54.407Z,5.40
2017-08-24T10:01:41.088Z,5.37
2017-08-24T10:06:27.719Z,5.73
2017-08-24T10:11:14.346Z,6.47
2017-08-24T10:16:01.065Z,5.20
2017-08-24T10:20:48.095Z,4.97
2017-08-24T10:25:34.720Z,4.50
2017-08-24T10:30:21.367Z,4.50
2017-08-24T10:35:08.404Z,4.57
2017-08-24T10:39:55.050Z,4.80
2017-08-24T10:44:41.687Z,4.93
2017-08-24T10:49:28.345Z,4.80
2017-08-24T10:54:15.246Z,4.60
2017-08-24T10:59:01.874Z,5.10
2017-08-24T11:03:48.512Z,5.27
2017-08-24T11:08:35.143Z,4.57
2017-08-24T11:13:22.146Z,4.63
2017-08-24T11:18:08.795Z,5.20
2017-08-24T11:22:55.430Z,5.93
2017-08-24T11:27:42.093Z,5.03
2017-08-24T11:32:29.046Z,5.83
2017-08-24T11:37:15.690Z,5.20
2017-08-24T11:42:02.355Z,6.27
2017-08-24T11:46:49.026Z,6.10
2017-08-24T11:51:35.630Z,6.03
2017-08-24T11:56:22.567Z,5.50
2017-08-24T12:01:09.197Z,4.70
2017-08-24T12:05:55.840Z,5.80
2017-08-24T12:10:42.503Z,6.10
2017-08-24T12:15:29.154Z,5.07
2017-08-24T12:20:15.801Z,5.40
2017-08-24T12:25:02.510Z,5.23
2017-08-24T12:29:49.936Z,5.27
2017-08-24T12:34:36.602Z,6.13
2017-08-24T12:39:23.670Z,5.43
2017-08-24T12:44:10.341Z,5.97
2017-08-24T12:48:57.005Z,6.20
2017-08-24T12:53:43.650Z,5.77
2017-08-24T12:58:30.318Z,5.83
2017-08-24T13:03:16.990Z,5.53
2017-08-24T13:08:04.048Z,6.00
2017-08-24T13:12:50.671Z,7.20
2017-08-24T13:17:37.320Z,5.43
2017-08-24T13:22:23.966Z,6.33
2017-08-24T13:27:10.884Z,6.40
2017-08-24T13:31:57.535Z,6.43
2017-08-24T13:36:44.158Z,6.60
2017-08-24T13:41:30.786Z,6.87
2017-08-24T13:46:17.444Z,7.40
2017-08-24T13:51:04.063Z,7.13
2017-08-24T13:55:50.698Z,6.90
2017-08-24T14:00:37.409Z,6.70
2017-08-24T14:05:24.081Z,6.63
2017-08-24T14:10:10.721Z,6.77
2017-08-24T14:14:57.706Z,6.37
2017-08-24T14:19:44.734Z,8.17
2017-08-24T14:24:31.390Z,6.70
2017-08-24T14:29:18.109Z,7.03
2017-08-24T14:34:04.851Z,6.60
2017-08-24T14:38:51.925Z,6.60
2017-08-24T14:43:38.563Z,6.90
2017-08-24T14:48:25.240Z,5.83
2017-08-24T14:53:11.902Z,6.30
2017-08-24T14:57:58.798Z,6.10
2017-08-24T15:02:45.422Z,6.17
2017-08-24T15:07:32.114Z,6.87
2017-08-24T15:12:19.085Z,6.40
2017-08-24T15:17:05.697Z,6.10
2017-08-24T15:21:52.360Z,6.83
2017-08-24T15:26:38.993Z,7.57
2017-08-24T15:31:25.970Z,6.17
2017-08-24T15:36:12.587Z,7.50
2017-08-24T15:40:59.207Z,6.90
2017-08-24T15:45:45.939Z,6.37
2017-08-24T15:50:32.631Z,5.90
2017-08-24T15:55:19.582Z,6.83
2017-08-24T16:00:06.293Z,6.30
2017-08-24T16:04:53.037Z,6.90
2017-08-24T16:09:39.700Z,6.97
2017-08-24T16:14:26.427Z,7.07
2017-08-24T16:19:13.522Z,6.77
2017-08-24T16:24:00.342Z,6.70
2017-08-24T16:28:47.018Z,7.10
2017-08-24T16:33:33.643Z,6.90
2017-08-24T16:38:21.418Z,6.57
2017-08-24T16:43:08.082Z,7.43
2017-08-24T16:47:54.825Z,7.43
2017-08-24T16:52:41.629Z,7.87
2017-08-24T16:57:28.358Z,7.37
2017-08-24T17:02:15.055Z,7.70
2017-08-24T17:07:02.773Z,6.53
2017-08-24T17:11:49.467Z,7.00
2017-08-24T17:16:36.153Z,6.90
2017-08-24T17:21:22.859Z,7.97
2017-08-24T17:26:09.633Z,8.00
2017-08-24T17:30:56.367Z,7.73
2017-08-24T17:35:43.004Z,7.53
2017-08-24T17:40:29.715Z,6.80
2017-08-24T17:45:16.673Z,7.73
2017-08-24T17:50:03.758Z,9.27
2017-08-24T17:54:50.464Z,8.17
2017-08-24T17:59:37.135Z,8.60
2017-08-24T18:04:23.777Z,8.13
2017-08-24T18:09:11.224Z,9.10
2017-08-24T18:13:58.927Z,8.63
2017-08-24T18:18:45.581Z,8.20
2017-08-24T18:23:32.215Z,10.43
2017-08-24T18:28:18.885Z,9.70
2017-08-24T18:33:05.524Z,10.47
2017-08-24T18:37:52.181Z,9.63
2017-08-24T18:42:38.821Z,9.60
2017-08-24T18:47:25.884Z,12.20
2017-08-24T18:52:12.569Z,10.70
2017-08-24T18:56:59.265Z,10.83
2017-08-24T19:01:45.972Z,9.80
2017-08-24T19:06:32.943Z,10.63
2017-08-24T19:11:19.599Z,11.03
2017-08-24T19:16:06.335Z,10.37
2017-08-24T19:20:53.086Z,11.30
2017-08-24T19:25:39.849Z,11.30
2017-08-24T19:30:26.919Z,12.30
2017-08-24T19:35:13.615Z,12.87
2017-08-24T19:40:00.351Z,12.40
2017-08-24T19:44:47.048Z,12.10
2017-08-24T19:49:33.759Z,13.10
2017-08-24T19:54:20.487Z,6.87
2017-08-24T19:59:07.202Z,4.33
2017-08-24T20:03:53.918Z,2.97
2017-08-24T20:08:40.952Z,3.90
2017-08-24T20:13:27.571Z,2.97
2017-08-24T20:18:14.310Z,2.97
2017-08-24T20:23:01.072Z,3.10
2017-08-24T20:27:47.734Z,2.87
2017-08-24T20:32:34.510Z,2.37
2017-08-24T20:37:21.511Z,2.90
2017-08-24T20:42:08.287Z,2.60
2017-08-24T20:46:55.037Z,2.50
2017-08-24T20:51:41.775Z,2.40
2017-08-24T20:56:28.426Z,2.73
2017-08-24T21:01:15.089Z,3.23
2017-08-24T21:06:02.084Z,2.73
2017-08-24T21:10:48.717Z,2.67
2017-08-24T21:15:35.431Z,2.93
2017-08-24T21:20:22.077Z,2.90
2017-08-24T21:25:08.741Z,2.67
2017-08-24T21:29:55.849Z,2.97
2017-08-24T21:34:42.915Z,3.13
2017-08-24T21:39:29.572Z,3.00
2017-08-24T21:44:16.292Z,2.77
2017-08-24T21:49:02.965Z,4.13
2017-08-24T21:53:56.648Z,3.30
2017-08-24T21:58:43.334Z,2.90
2017-08-24T22:03:30.181Z,3.00
2017-08-24T22:08:17.162Z,2.63
2017-08-24T22:13:03.808Z,3.57
2017-08-24T22:17:50.549Z,2.93
2017-08-24T22:22:37.278Z,3.17
2017-08-24T22:27:23.924Z,2.97
2017-08-24T22:32:10.614Z,3.30
2017-08-24T22:36:57.264Z,3.30
2017-08-24T22:41:44.184Z,3.23
2017-08-24T22:46:30.836Z,2.77
2017-08-24T22:51:17.526Z,2.90
2017-08-24T22:56:10.209Z,2.77
2017-08-24T23:01:02.805Z,3.10
2017-08-24T23:05:49.636Z,3.33
2017-08-24T23:10:36.752Z,3.20
2017-08-24T23:15:23.373Z,3.00
2017-08-24T23:20:10.131Z,4.23
2017-08-24T23:24:56.832Z,3.40
2017-08-24T23:29:43.633Z,3.23
2017-08-24T23:34:30.304Z,3.03
2017-08-24T23:39:17.243Z,3.43
2017-08-24T23:44:03.885Z,3.30
2017-08-24T23:48:50.572Z,3.80
2017-08-24T23:53:37.218Z,3.73
2017-08-24T23:58:23.885Z,3.87
